Terminal Aerodrome Forecast
Issued by NWS Cleveland, OH

Home | Current Version | Previous Version | Graphics & Text | Print | Product List | Glossary On
Versions: 1 2 3 4 5 6 7 8 9 10 11 12 13 14 15 16 17 18 19 20 21 22 23 24 25 26 27 28 29 30 31 32 33
000
FTUS41 KCLE 202100 AAA
TAFCLE
TAF AMD
KCLE 202103Z 2021/2124 20015G25KT P6SM SCT050
     FM210300 20015KT P6SM VCTS SCT045CB BKN120
      TEMPO 2104/2107 3SM TSRA BR BKN035CB
     FM210700 22012KT P6SM VCSH BKN035 OVC080
     FM211000 22012KT 6SM -SHRA SCT015 OVC030
     FM211400 26014G20KT P6SM BKN040
     FM212000 31015G25KT P6SM VCSH BKN020=

USA.gov is the U.S. government's official web portal to all federal, state and local government web resources and services.